Palermo — V2IA7 — position and weather

sailwx.info

Track history (hours):
 
Tides and Currents Weather Stations Pressure Air Temp Water Temp Dewpoint Dewpoint Depression Visibility Wind Speed Wind Dir Waves Ship Positions

Palermo

Last reported at 2017-Jan-29 16:18 UTC. Time now 2017-Feb-24 03:38 UTC.
Position S 27°06' W 048°23'.
Warning: this ship's position is 25 days out of date.

Length 118 m; draft 7.2 m.

Type: Cargo ship. MMSI: 304255000.

Date/timePositionNaut miles runAvg speedWind from/ knotsBaromVisibWave heightAir tempDewpointWater temp
2017-Jan-29 16:18S 27°06' W 048°23'1714.2
2017-Jan-29 15:08S 27°22' W 048°17'915.3
2017-Jan-29 14:33S 27°30' W 048°19'1515.4
2017-Jan-29 13:34S 27°46' W 048°21'63613.0
2017-Jan-27 12:34S 34°44' W 057°42'5 5.2
2017-Jan-27 11:32S 34°45' W 057°48'0 0.0
2017-Jan-27 08:26S 34°45' W 057°48'0 0.0
2017-Jan-27 07:32S 34°45' W 057°48'3 0.7
2017-Jan-27 03:33S 34°43' W 057°51'1414.5
2017-Jan-27 02:33S 34°38' W 058°07'  
2017-Jan-21 01:33S 34°28' W 058°24'1211.9
2017-Jan-21 00:34S 34°37' W 058°14'5 5.5
2017-Jan-20 23:33S 34°38' W 058°21'1 0.5
2017-Jan-20 21:29S 34°39' W 058°20'0 0.0
2017-Jan-20 15:20S 34°39' W 058°20'0 0.0
2017-Jan-20 01:29S 34°39' W 058°20'1 0.6
2017-Jan-20 00:33S 34°39' W 058°20'4 3.9
2017-Jan-19 23:31S 34°36' W 058°17'1111.0
2017-Jan-19 22:33S 34°39' W 058°04'1111.0
2017-Jan-19 21:33S 34°43' W 057°51'1010.0
2017-Jan-19 20:33S 34°45' W 057°39'  
Track history (hours):
 
Tides and Currents Weather Stations Pressure Air Temp Water Temp Dewpoint Dewpoint Depression Visibility Wind Speed Wind Dir Waves Ship Positions

Palermo

Last reported at 2017-Jan-29 16:18 UTC. Time now 2017-Feb-24 03:38 UTC.
Position S 27°06' W 048°23'.
Warning: this ship's position is 25 days out of date.

Length 118 m; draft 7.2 m.

Type: Cargo ship. MMSI: 304255000.

Date/timePositionNaut miles runAvg speedWind from/ knotsBaromVisibWave heightAir tempDewpointWater temp
2017-Jan-29 16:18S 27°06' W 048°23'1714.2
2017-Jan-29 15:08S 27°22' W 048°17'915.3
2017-Jan-29 14:33S 27°30' W 048°19'1515.4
2017-Jan-29 13:34S 27°46' W 048°21'63613.0
2017-Jan-27 12:34S 34°44' W 057°42'5 5.2
2017-Jan-27 11:32S 34°45' W 057°48'0 0.0
2017-Jan-27 08:26S 34°45' W 057°48'0 0.0
2017-Jan-27 07:32S 34°45' W 057°48'3 0.7
2017-Jan-27 03:33S 34°43' W 057°51'1414.5
2017-Jan-27 02:33S 34°38' W 058°07'  
2017-Jan-21 01:33S 34°28' W 058°24'1211.9
2017-Jan-21 00:34S 34°37' W 058°14'5 5.5
2017-Jan-20 23:33S 34°38' W 058°21'1 0.5
2017-Jan-20 21:29S 34°39' W 058°20'0 0.0
2017-Jan-20 15:20S 34°39' W 058°20'0 0.0
2017-Jan-20 01:29S 34°39' W 058°20'1 0.6
2017-Jan-20 00:33S 34°39' W 058°20'4 3.9
2017-Jan-19 23:31S 34°36' W 058°17'1111.0
2017-Jan-19 22:33S 34°39' W 058°04'1111.0
2017-Jan-19 21:33S 34°43' W 057°51'1010.0
2017-Jan-19 20:33S 34°45' W 057°39'  

Dump ship's entire track history